Home > Products > Valid Products > TAF

000
FTUS41 KILN 062325
TAFLCK
TAF
KLCK 062325Z 0700/0724 20003KT P6SM SCT250
     FM071600 21012G20KT P6SM FEW035 BKN150=



000
FTUS41 KILN 062325
TAFCMH
TAF
KCMH 062325Z 0700/0724 19003KT P6SM SCT250
     FM071600 20012G20KT P6SM FEW035 BKN150=



000
FTUS41 KILN 062325
TAFCVG
TAF
KCVG 062325Z 0700/0806 21005KT P6SM FEW250
     FM071500 21011KT P6SM SCT150
     FM080000 22006KT P6SM BKN050 OVC120=



000
FTUS41 KILN 062325
TAFLUK
TAF
KLUK 062325Z 0700/0724 00000KT P6SM FEW250
     FM071500 22010KT P6SM SCT150=



000
FTUS41 KILN 062325
TAFDAY
TAF
KDAY 062325Z 0700/0724 21007KT P6SM FEW050 SCT250
     FM071500 21014G22KT P6SM FEW035 BKN150=



000
FTUS41 KILN 062325
TAFILN
TAF
KILN 062325Z 0700/0724 21005KT P6SM SCT250
     FM071600 21012G20KT P6SM BKN150=



000
FTUS41 KILN 062056 AAA
TAFCVG
TAF AMD
KCVG 062056Z 0621/0724 22005KT P6SM FEW200
     FM071500 21010KT P6SM SCT120
     FM071800 21011G19KT P6SM BKN150=



000
FTUS41 KILN 061720
TAFCVG
TAF
KCVG 061720Z 0618/0724 24006KT P6SM SCT060
     FM062300 21004KT P6SM FEW200
     FM071500 21010KT P6SM SCT120
     FM071800 21011G19KT P6SM BKN150=



000
FTUS41 KILN 061720
TAFLUK
TAF
KLUK 061720Z 0618/0718 24005KT P6SM SCT070
     FM062300 00000KT P6SM FEW200
     FM071500 22008KT P6SM SCT120=



000
FTUS41 KILN 061720
TAFCMH
TAF
KCMH 061720Z 0618/0718 22007KT P6SM FEW080
     FM062300 19003KT P6SM FEW200
     FM071500 19010KT P6SM SCT120=



000
FTUS41 KILN 061720
TAFILN
TAF
KILN 061720Z 0618/0718 24008KT P6SM FEW070
     FM062300 21005KT P6SM FEW050 SCT200
     FM071500 21012KT P6SM SCT120=



000
FTUS41 KILN 061720
TAFLCK
TAF
KLCK 061720Z 0618/0718 23008KT P6SM FEW070
     FM062300 19003KT P6SM FEW200
     FM071500 20010KT P6SM SCT120=



000
FTUS41 KILN 061720
TAFDAY
TAF
KDAY 061720Z 0618/0718 23008KT P6SM FEW060
     FM062300 20007KT P6SM FEW050 SCT200
     FM071500 21013KT P6SM FEW030 BKN120=



000
FTUS41 KILN 061500 AAA
TAFCVG
TAF AMD
KCVG 061500Z 0615/0718 16003KT 5SM BR SCT250
     FM061600 23008KT P6SM SCT060
     FM062300 19004KT P6SM SCT050
     FM071500 21010KT P6SM BKN150=



000
FTUS41 KILN 061500 AAA
TAFDAY
TAF AMD
KDAY 061500Z 0615/0712 21005KT 5SM BR SCT250
     FM061600 23009KT P6SM SCT060
     FM062300 19005KT P6SM FEW050=



000
FTUS41 KILN 061500 AAA
TAFCVG
TAF AMD
KCVG 061500Z 0615/0718 16003KT 5SM BR SCT250
     FM061600 23008KT P6SM SCT060
     FM062300 19004KT P6SM SCT050
     FM071500 21010KT P6SM BKN150=



000
FTUS41 KILN 061500 AAA
TAFDAY
TAF AMD
KDAY 061500Z 0615/0712 21005KT 5SM BR SCT250
     FM061600 23009KT P6SM SCT060
     FM062300 19005KT P6SM FEW050=



000
FTUS41 KILN 061228 AAB
TAFLUK
TAF AMD
KLUK 061228Z 0612/0712 00000KT 4SM BR SCT250
     FM061400 23007KT P6SM SCT070
     FM062300 19003KT P6SM SCT060=



000
FTUS41 KILN 061123 AAA
TAFLUK
TAF AMD
KLUK 061123Z 0611/0712 VRB02KT 2SM BR SCT250
      TEMPO 0612/0614 1/2SM FZFG
     FM061400 23007KT P6SM SCT070
     FM062300 19003KT P6SM SCT060=



000
FTUS41 KILN 061123 AAA
TAFLUK
TAF AMD
KLUK 061123Z 0611/0712 VRB02KT 2SM BR SCT250
      TEMPO 0612/0614 1/2SM FZFG
     FM061400 23007KT P6SM SCT070
     FM062300 19003KT P6SM SCT060=



000
FTUS41 KILN 061120
TAFLCK
TAF
KLCK 061120Z 0612/0712 VRB04KT P6SM SCT250
     FM061600 23008KT P6SM FEW070
     FM062300 20003KT P6SM SKC=



000
FTUS41 KILN 061120
TAFDAY
TAF
KDAY 061120Z 0612/0712 VRB02KT 5SM BR SCT250
     FM061400 23009KT P6SM SCT060
     FM062300 19005KT P6SM FEW050=



000
FTUS41 KILN 061120
TAFILN
TAF
KILN 061120Z 0612/0712 VRB04KT P6SM SCT250
     FM061400 24009KT P6SM SCT080
     FM062300 19005KT P6SM FEW050=



000
FTUS41 KILN 061120
TAFCMH
TAF
KCMH 061120Z 0612/0712 VRB04KT P6SM SCT250
     FM061600 23008KT P6SM FEW070
     FM062300 20003KT P6SM SKC=



000
FTUS41 KILN 061120
TAFLUK
TAF
KLUK 061120Z 0612/0712 VRB02KT 5SM BR SCT250
     FM061400 23007KT P6SM SCT070
     FM062300 19003KT P6SM SCT060=



000
FTUS41 KILN 061120
TAFCVG
TAF
KCVG 061120Z 0612/0718 VRB03KT 5SM BR SCT250
     FM061400 23008KT P6SM SCT060
     FM062300 19004KT P6SM SCT050
     FM071500 21010KT P6SM BKN150=



000
FTUS41 KILN 061120
TAFCMH
TAF
KCMH 061120Z 0612/0712 VRB04KT P6SM SCT250
     FM061600 23008KT P6SM FEW070
     FM062300 20003KT P6SM SKC=



000
FTUS41 KILN 061120
TAFLCK
TAF
KLCK 061120Z 0612/0712 VRB04KT P6SM SCT250
     FM061600 23008KT P6SM FEW070
     FM062300 20003KT P6SM SKC=



000
FTUS41 KILN 061120
TAFCVG
TAF
KCVG 061120Z 0612/0718 VRB03KT 5SM BR SCT250
     FM061400 23008KT P6SM SCT060
     FM062300 19004KT P6SM SCT050
     FM071500 21010KT P6SM BKN150=



000
FTUS41 KILN 061120
TAFLUK
TAF
KLUK 061120Z 0612/0712 VRB02KT 5SM BR SCT250
     FM061400 23007KT P6SM SCT070
     FM062300 19003KT P6SM SCT060=



000
FTUS41 KILN 061120
TAFDAY
TAF
KDAY 061120Z 0612/0712 VRB02KT 5SM BR SCT250
     FM061400 23009KT P6SM SCT060
     FM062300 19005KT P6SM FEW050=



000
FTUS41 KILN 061120
TAFILN
TAF
KILN 061120Z 0612/0712 VRB04KT P6SM SCT250
     FM061400 24009KT P6SM SCT080
     FM062300 19005KT P6SM FEW050=



000
FTUS41 KILN 060855 AAA
TAFCVG
TAF AMD
KCVG 060855Z 0609/0712 VRB04KT 6SM BR FEW050 SCT250
     FM061500 23008KT P6SM SCT060 SCT250
     FM062300 19004KT P6SM SCT050=



000
FTUS41 KILN 060524
TAFCMH
TAF
KCMH 060524Z 0606/0706 18005KT P6SM SCT050 SCT250
     FM061600 23008KT P6SM SCT070
     FM062200 20003KT P6SM FEW050=



000
FTUS41 KILN 060524
TAFILN
TAF
KILN 060524Z 0606/0706 VRB04KT P6SM SCT250
     FM061400 24009KT P6SM SCT080
     FM062300 18005KT P6SM FEW050=



000
FTUS41 KILN 060524
TAFCVG
TAF
KCVG 060524Z 0606/0712 VRB04KT P6SM FEW050 SCT250
     FM061500 23008KT P6SM SCT060 SCT250
     FM062300 19004KT P6SM SCT050=



000
FTUS41 KILN 060524
TAFLUK
TAF
KLUK 060524Z 0606/0706 VRB02KT P6SM SCT250
     FM061500 23007KT P6SM SCT070 SCT250
     FM062300 19003KT P6SM SCT060=



000
FTUS41 KILN 060524
TAFDAY
TAF
KDAY 060524Z 0606/0706 VRB02KT P6SM SCT050 SCT250
     FM061400 23009KT P6SM SCT060
     FM062200 19005KT P6SM FEW050=



000
FTUS41 KILN 060524
TAFLCK
TAF
KLCK 060524Z 0606/0706 18005KT P6SM SCT050 SCT250
     FM061600 23008KT P6SM SCT070
     FM062200 20003KT P6SM FEW050=



000
FTUS41 KILN 052338
TAFLCK
TAF
KLCK 052338Z 0600/0624 18005KT P6SM SCT050 BKN250
     FM061600 23008KT P6SM SCT070
     FM062200 20003KT P6SM SKC=



000
FTUS41 KILN 052338
TAFLUK
TAF
KLUK 052338Z 0600/0624 22006KT P6SM BKN250
     FM061700 23007KT P6SM BKN050
     FM062300 19003KT P6SM SKC=



000
FTUS41 KILN 052338
TAFCVG
TAF
KCVG 052338Z 0600/0706 20005KT P6SM FEW050 BKN250
     FM061500 23007KT P6SM FEW070 SCT250
     FM061800 23007KT P6SM BKN050
     FM062300 19003KT P6SM SKC=



000
FTUS41 KILN 052338
TAFILN
TAF
KILN 052338Z 0600/0624 17004KT P6SM BKN250
     FM061300 24008KT P6SM SCT080
     FM062300 18003KT P6SM SKC=



000
FTUS41 KILN 052338
TAFDAY
TAF
KDAY 052338Z 0600/0624 20004KT P6SM SCT050 BKN250
      TEMPO 0600/0604 19008KT BKN045
     FM061300 23008KT P6SM SCT070
     FM062200 20005KT P6SM SKC=



000
FTUS41 KILN 052338
TAFCMH
TAF
KCMH 052338Z 0600/0624 18005KT P6SM SCT050 BKN250
     FM061600 23008KT P6SM SCT070
     FM062200 20003KT P6SM SKC=



000
FTUS41 KILN 052338
TAFILN
TAF
KILN 052338Z 0600/0624 17004KT P6SM BKN250
     FM061300 24008KT P6SM SCT080
     FM062300 18003KT P6SM SKC=



000
FTUS41 KILN 052338
TAFLUK
TAF
KLUK 052338Z 0600/0624 22006KT P6SM BKN250
     FM061700 23007KT P6SM BKN050
     FM062300 19003KT P6SM SKC=



000
FTUS41 KILN 052338
TAFDAY
TAF
KDAY 052338Z 0600/0624 20004KT P6SM SCT050 BKN250
      TEMPO 0600/0604 19008KT BKN045
     FM061300 23008KT P6SM SCT070
     FM062200 20005KT P6SM SKC=



000
FTUS41 KILN 052338
TAFLCK
TAF
KLCK 052338Z 0600/0624 18005KT P6SM SCT050 BKN250
     FM061600 23008KT P6SM SCT070
     FM062200 20003KT P6SM SKC=



000
FTUS41 KILN 052338
TAFCVG
TAF
KCVG 052338Z 0600/0706 20005KT P6SM FEW050 BKN250
     FM061500 23007KT P6SM FEW070 SCT250
     FM061800 23007KT P6SM BKN050
     FM062300 19003KT P6SM SKC=



000
FTUS41 KILN 052338
TAFCMH
TAF
KCMH 052338Z 0600/0624 18005KT P6SM SCT050 BKN250
     FM061600 23008KT P6SM SCT070
     FM062200 20003KT P6SM SKC=



000
FTUS41 KILN 052107 AAA
TAFCVG
TAF AMD
KCVG 052107Z 0521/0624 19007KT P6SM SCT250
     FM060000 22005KT P6SM SCT040
     FM060600 27004KT P6SM SCT100
     FM061300 23007KT P6SM SCT080
     FM061800 23007KT P6SM BKN040=



000
FTUS41 KILN 051737
TAFILN
TAF
KILN 051737Z 0518/0618 20008KT P6SM SKC
     FM060000 23005KT P6SM BKN040
     FM060600 25004KT P6SM SCT100
     FM061400 23007KT P6SM SCT080=



000
FTUS41 KILN 051737
TAFILN
TAF
KILN 051737Z 0518/0618 20008KT P6SM SKC
     FM060000 23005KT P6SM BKN040
     FM060600 25004KT P6SM SCT100
     FM061400 23007KT P6SM SCT080=



000
FTUS41 KILN 051737
TAFLUK
TAF
KLUK 051737Z 0518/0618 VRB05KT P6SM FEW200
     FM060000 VRB03KT P6SM BKN040
     FM060600 VRB03KT P6SM SCT100=



000
FTUS41 KILN 051737
TAFCMH
TAF
KCMH 051737Z 0518/0618 22005KT P6SM SKC
     FM060100 23005KT P6SM BKN040
     FM060600 22004KT P6SM SCT100
     FM061500 24007KT P6SM SCT080=



000
FTUS41 KILN 051737
TAFLCK
TAF
KLCK 051737Z 0518/0618 22005KT P6SM SKC
     FM060100 23005KT P6SM BKN040
     FM060600 22004KT P6SM SCT100
     FM061500 24007KT P6SM SCT080=



000
FTUS41 KILN 051737
TAFLUK
TAF
KLUK 051737Z 0518/0618 VRB05KT P6SM FEW200
     FM060000 VRB03KT P6SM BKN040
     FM060600 VRB03KT P6SM SCT100=



000
FTUS41 KILN 051737
TAFLCK
TAF
KLCK 051737Z 0518/0618 22005KT P6SM SKC
     FM060100 23005KT P6SM BKN040
     FM060600 22004KT P6SM SCT100
     FM061500 24007KT P6SM SCT080=



000
FTUS41 KILN 051737
TAFCMH
TAF
KCMH 051737Z 0518/0618 22005KT P6SM SKC
     FM060100 23005KT P6SM BKN040
     FM060600 22004KT P6SM SCT100
     FM061500 24007KT P6SM SCT080=



000
FTUS41 KILN 051737
TAFDAY
TAF
KDAY 051737Z 0518/0618 20008KT P6SM SKC
     FM052300 23005KT P6SM BKN040
     FM060600 26004KT P6SM SCT100
     FM061300 23007KT P6SM SCT080=



000
FTUS41 KILN 051737
TAFCVG
TAF
KCVG 051737Z 0518/0624 19007KT P6SM FEW200
     FM060000 22005KT P6SM BKN040
     FM060600 27004KT P6SM SCT100
     FM061300 23007KT P6SM SCT080
     FM061800 23007KT P6SM BKN040=



000
FTUS41 KILN 051737
TAFDAY
TAF
KDAY 051737Z 0518/0618 20008KT P6SM SKC
     FM052300 23005KT P6SM BKN040
     FM060600 26004KT P6SM SCT100
     FM061300 23007KT P6SM SCT080=



000
FTUS41 KILN 051737
TAFCVG
TAF
KCVG 051737Z 0518/0624 19007KT P6SM FEW200
     FM060000 22005KT P6SM BKN040
     FM060600 27004KT P6SM SCT100
     FM061300 23007KT P6SM SCT080
     FM061800 23007KT P6SM BKN040=



000
FTUS41 KILN 051504 AAA
TAFCVG
TAF AMD
KCVG 051504Z 0515/0618 22005KT P6SM SKC
     FM051600 22007KT P6SM FEW060 SCT250
     FM060600 24004KT P6SM SCT250=



000
FTUS41 KILN 051133
TAFILN
TAF
KILN 051133Z 0512/0612 26004KT P6SM SKC
     FM051800 22008KT P6SM FEW050 BKN250
     FM060600 24004KT P6SM SCT250=



000
FTUS41 KILN 051133
TAFCMH
TAF
KCMH 051133Z 0512/0612 30005KT P6SM SKC
     FM051500 24007KT P6SM FEW050 BKN250
     FM060600 24004KT P6SM SCT250=



000
FTUS41 KILN 051133
TAFLCK
TAF
KLCK 051133Z 0512/0612 29004KT P6SM SKC
     FM051500 23007KT P6SM FEW050 BKN250
     FM060600 24004KT P6SM SCT250=



000
FTUS41 KILN 051133
TAFDAY
TAF
KDAY 051133Z 0512/0612 24006KT P6SM SKC
     FM051700 22008KT P6SM FEW050 BKN250
     FM060600 24004KT P6SM SCT250=



000
FTUS41 KILN 051133
TAFCVG
TAF
KCVG 051133Z 0512/0618 25005KT P6SM SKC
     FM051600 22007KT P6SM FEW060 SCT250
     FM060600 24004KT P6SM SCT250=



000
FTUS41 KILN 051133
TAFLUK
TAF
KLUK 051133Z 0512/0612 25003KT P6SM SKC
     FM051600 22007KT P6SM FEW060 SCT250
     FM060600 24002KT P6SM SCT250=



000
FTUS41 KILN 051133
TAFDAY
TAF
KDAY 051133Z 0512/0612 24006KT P6SM SKC
     FM051700 22008KT P6SM FEW050 BKN250
     FM060600 24004KT P6SM SCT250=



000
FTUS41 KILN 051133
TAFLCK
TAF
KLCK 051133Z 0512/0612 29004KT P6SM SKC
     FM051500 23007KT P6SM FEW050 BKN250
     FM060600 24004KT P6SM SCT250=



000
FTUS41 KILN 051133
TAFCMH
TAF
KCMH 051133Z 0512/0612 30005KT P6SM SKC
     FM051500 24007KT P6SM FEW050 BKN250
     FM060600 24004KT P6SM SCT250=



000
FTUS41 KILN 051133
TAFCVG
TAF
KCVG 051133Z 0512/0618 25005KT P6SM SKC
     FM051600 22007KT P6SM FEW060 SCT250
     FM060600 24004KT P6SM SCT250=



000
FTUS41 KILN 051133
TAFILN
TAF
KILN 051133Z 0512/0612 26004KT P6SM SKC
     FM051800 22008KT P6SM FEW050 BKN250
     FM060600 24004KT P6SM SCT250=



000
FTUS41 KILN 051133
TAFLUK
TAF
KLUK 051133Z 0512/0612 25003KT P6SM SKC
     FM051600 22007KT P6SM FEW060 SCT250
     FM060600 24002KT P6SM SCT250=



000
FTUS41 KILN 050855 AAA
TAFCVG
TAF AMD
KCVG 050855Z 0509/0612 29005KT P6SM SKC
     FM051500 22007KT P6SM FEW060 SCT250=



000
FTUS41 KILN 050520
TAFILN
TAF
KILN 050520Z 0506/0606 29004KT P6SM SKC
     FM051800 22008KT P6SM FEW050 BKN250=



000
FTUS41 KILN 050520
TAFCVG
TAF
KCVG 050520Z 0506/0612 29005KT P6SM SKC
     FM051500 22007KT P6SM FEW060 SCT250=



000
FTUS41 KILN 050520
TAFLUK
TAF
KLUK 050520Z 0506/0606 29004KT P6SM SKC
     FM051500 22007KT P6SM FEW060 SCT250=



000
FTUS41 KILN 050520
TAFLCK
TAF
KLCK 050520Z 0506/0606 29004KT P6SM SKC
     FM051500 23007KT P6SM FEW050 BKN250=



000
FTUS41 KILN 050520
TAFDAY
TAF
KDAY 050520Z 0506/0606 28006KT P6SM SKC
     FM051800 22008KT P6SM FEW050 BKN250=



000
FTUS41 KILN 050520
TAFCMH
TAF
KCMH 050520Z 0506/0606 30005KT P6SM SKC
     FM051500 24007KT P6SM FEW050 BKN250=



000
FTUS41 KILN 042328
TAFCMH
TAF
KCMH 042328Z 0500/0524 29007KT P6SM -SN SCT025 BKN035
     FM050300 30005KT P6SM SKC
     FM051500 24007KT P6SM BKN250=



000
FTUS41 KILN 042328
TAFLUK
TAF
KLUK 042328Z 0500/0524 29005KT P6SM SCT040
     FM050100 30004KT P6SM SKC
     FM051500 22007KT P6SM SCT250
     FM052000 20004KT P6SM BKN250=



000
FTUS41 KILN 042328
TAFILN
TAF
KILN 042328Z 0500/0524 29007KT P6SM BKN040
     FM050100 29004KT P6SM SKC
     FM051900 22008KT P6SM BKN250=



000
FTUS41 KILN 042328
TAFDAY
TAF
KDAY 042328Z 0500/0524 28006KT P6SM SKC
     FM051800 22008KT P6SM BKN250=



000
FTUS41 KILN 042328
TAFCVG
TAF
KCVG 042328Z 0500/0606 29005KT P6SM SKC
     FM051000 22003KT P6SM SKC
     FM051500 22007KT P6SM SCT250
     FM052000 20004KT P6SM BKN250=



000
FTUS41 KILN 042328
TAFLCK
TAF
KLCK 042328Z 0500/0524 30005KT P6SM -SN SCT030 BKN045
     FM050300 29004KT P6SM SKC
     FM051500 23007KT P6SM BKN250=



000
FTUS41 KILN 042328
TAFCMH
TAF
KCMH 042328Z 0500/0524 29007KT P6SM -SN SCT025 BKN035
     FM050300 30005KT P6SM SKC
     FM051500 24007KT P6SM BKN250=



000
FTUS41 KILN 042328
TAFLUK
TAF
KLUK 042328Z 0500/0524 29005KT P6SM SCT040
     FM050100 30004KT P6SM SKC
     FM051500 22007KT P6SM SCT250
     FM052000 20004KT P6SM BKN250=



000
FTUS41 KILN 042328
TAFDAY
TAF
KDAY 042328Z 0500/0524 28006KT P6SM SKC
     FM051800 22008KT P6SM BKN250=



000
FTUS41 KILN 042328
TAFCVG
TAF
KCVG 042328Z 0500/0606 29005KT P6SM SKC
     FM051000 22003KT P6SM SKC
     FM051500 22007KT P6SM SCT250
     FM052000 20004KT P6SM BKN250=



000
FTUS41 KILN 042328
TAFILN
TAF
KILN 042328Z 0500/0524 29007KT P6SM BKN040
     FM050100 29004KT P6SM SKC
     FM051900 22008KT P6SM BKN250=



000
FTUS41 KILN 042328
TAFLCK
TAF
KLCK 042328Z 0500/0524 30005KT P6SM -SN SCT030 BKN045
     FM050300 29004KT P6SM SKC
     FM051500 23007KT P6SM BKN250=



000
FTUS41 KILN 042129 AAB
TAFDAY
TAF AMD
KDAY 042129Z 0421/0518 29008KT P6SM -SN OVC025
     FM042330 28006KT P6SM SKC
     FM051300 23008KT P6SM BKN150=



000
FTUS41 KILN 042106 AAA
TAFCVG
TAF AMD
KCVG 042106Z 0421/0524 29009KT P6SM BKN045
     FM042230 29005KT P6SM SKC
     FM051000 22003KT P6SM SKC
     FM051700 22007KT P6SM SCT250
     FM052200 20004KT P6SM BKN250=



000
FTUS41 KILN 041911 AAA
TAFDAY
TAF AMD
KDAY 041911Z 0419/0518 29010KT P6SM VCSH OVC035
      TEMPO 0419/0421 4SM -SN OVC025
     FM042300 28007KT P6SM SCT025
     FM050200 26006KT P6SM SKC
     FM051300 23008KT P6SM BKN150=



000
FTUS41 KILN 041731
TAFILN
TAF
KILN 041731Z 0418/0518 29009KT P6SM VCSH OVC025
     FM042300 29007KT P6SM SCT028
     FM050100 29004KT P6SM SKC
     FM051300 23008KT P6SM BKN150=



000
FTUS41 KILN 041731
TAFLUK
TAF
KLUK 041731Z 0418/0518 29008KT P6SM BKN035
     FM042200 29005KT P6SM SCT040
     FM050100 30004KT P6SM SKC
     FM051400 22006KT P6SM BKN250=



000
FTUS41 KILN 041731
TAFLCK
TAF
KLCK 041731Z 0418/0518 28009KT P6SM VCSH OVC028
     FM042300 29008KT P6SM BKN035
     FM050300 30006KT P6SM SKC
     FM051400 24006KT P6SM BKN150=



000
FTUS41 KILN 041731
TAFCVG
TAF
KCVG 041731Z 0418/0524 29009KT P6SM OVC035
     FM042200 29006KT P6SM SCT035
     FM050100 26005KT P6SM SKC
     FM051400 23008KT P6SM BKN200=



000
FTUS41 KILN 041731
TAFCMH
TAF
KCMH 041731Z 0418/0518 28009KT P6SM VCSH OVC022
     FM042300 29008KT P6SM BKN035
     FM050300 30006KT P6SM SKC
     FM051400 24007KT P6SM BKN150=



000
FTUS41 KILN 041731
TAFDAY
TAF
KDAY 041731Z 0418/0518 28011KT P6SM VCSH OVC022
     FM042300 28007KT P6SM SCT025
     FM050200 26006KT P6SM SKC
     FM051300 23008KT P6SM BKN150=



000
FTUS41 KILN 041731
TAFLCK
TAF
KLCK 041731Z 0418/0518 28009KT P6SM VCSH OVC028
     FM042300 29008KT P6SM BKN035
     FM050300 30006KT P6SM SKC
     FM051400 24006KT P6SM BKN150=



000
FTUS41 KILN 041731
TAFLUK
TAF
KLUK 041731Z 0418/0518 29008KT P6SM BKN035
     FM042200 29005KT P6SM SCT040
     FM050100 30004KT P6SM SKC
     FM051400 22006KT P6SM BKN250=



000
FTUS41 KILN 041731
TAFILN
TAF
KILN 041731Z 0418/0518 29009KT P6SM VCSH OVC025
     FM042300 29007KT P6SM SCT028
     FM050100 29004KT P6SM SKC
     FM051300 23008KT P6SM BKN150=



000
FTUS41 KILN 041731
TAFDAY
TAF
KDAY 041731Z 0418/0518 28011KT P6SM VCSH OVC022
     FM042300 28007KT P6SM SCT025
     FM050200 26006KT P6SM SKC
     FM051300 23008KT P6SM BKN150=



000
FTUS41 KILN 041731
TAFCMH
TAF
KCMH 041731Z 0418/0518 28009KT P6SM VCSH OVC022
     FM042300 29008KT P6SM BKN035
     FM050300 30006KT P6SM SKC
     FM051400 24007KT P6SM BKN150=



000
FTUS41 KILN 041731
TAFCVG
TAF
KCVG 041731Z 0418/0524 29009KT P6SM OVC035
     FM042200 29006KT P6SM SCT035
     FM050100 26005KT P6SM SKC
     FM051400 23008KT P6SM BKN200=



000
FTUS41 KILN 041543 AAA
TAFDAY
TAF AMD
KDAY 041543Z 0416/0512 28011KT P6SM OVC022
      TEMPO 0416/0418 4SM -SN
     FM041800 27010KT P6SM BKN025
     FM042200 28007KT P6SM SCT025
     FM050200 26006KT P6SM SKC=



000
FTUS41 KILN 041457 AAA
TAFCVG
TAF AMD
KCVG 041457Z 0415/0518 30010KT P6SM OVC025
     FM041800 28008KT P6SM BKN025
     FM042100 29007KT P6SM SCT035
     FM050000 26005KT P6SM SKC
     FM051400 23008KT P6SM SCT250=



000
FTUS41 KILN 041130
TAFLCK
TAF
KLCK 041130Z 0412/0512 28010KT P6SM OVC017
     FM041600 27009KT P6SM BKN025
     FM042100 27011KT P6SM BKN035
     FM050300 27006KT P6SM SKC=



000
FTUS41 KILN 041130
TAFCMH
TAF
KCMH 041130Z 0412/0512 28010KT P6SM OVC017
     FM041600 27009KT P6SM BKN025
     FM042100 27011KT P6SM BKN035
     FM050300 27006KT P6SM SKC=



000
FTUS41 KILN 041130
TAFILN
TAF
KILN 041130Z 0412/0512 27010KT P6SM OVC026
     FM041500 27010KT P6SM BKN028
     FM042300 28007KT P6SM SCT028
     FM050100 28004KT P6SM SKC=



000
FTUS41 KILN 041130
TAFDAY
TAF
KDAY 041130Z 0412/0512 28011KT P6SM OVC018
     FM041500 27010KT P6SM BKN025
     FM042200 28007KT P6SM SCT025
     FM050200 26006KT P6SM SKC=



000
FTUS41 KILN 041130
TAFCVG
TAF
KCVG 041130Z 0412/0518 30010KT P6SM OVC023
     FM041800 28008KT P6SM BKN025
     FM042100 29007KT P6SM SCT035
     FM050000 26005KT P6SM SKC
     FM051400 23008KT P6SM SCT250=



000
FTUS41 KILN 041130
TAFLUK
TAF
KLUK 041130Z 0412/0512 27010KT P6SM OVC028
     FM041800 28007KT P6SM BKN028
     FM042100 29006KT P6SM SCT040
     FM050000 30004KT P6SM SKC=



000
FTUS41 KILN 040900 AAA
TAFCVG
TAF AMD
KCVG 040900Z 0409/0512 29010KT P6SM OVC025
     FM041800 28008KT P6SM BKN025
     FM042000 29007KT P6SM SCT035
     FM050000 30005KT P6SM SKC
     FM051000 22004KT P6SM SKC=



000
FTUS41 KILN 040900 AAA
TAFCVG
TAF AMD
KCVG 040900Z 0409/0512 29010KT P6SM OVC025
     FM041800 28008KT P6SM BKN025
     FM042000 29007KT P6SM SCT035
     FM050000 30005KT P6SM SKC
     FM051000 22004KT P6SM SKC=



000
FTUS41 KILN 040541
TAFCMH
TAF
KCMH 040541Z 0406/0506 28013G23KT P6SM SCT025 OVC035
     FM040700 27012KT P6SM OVC015
     FM041600 27009KT P6SM BKN025
     FM042000 27011KT P6SM BKN035
     FM050300 27006KT P6SM SKC=



000
FTUS41 KILN 040541
TAFCVG
TAF
KCVG 040541Z 0406/0512 27012KT P6SM SCT025 OVC035
     FM040700 27010KT P6SM OVC025
     FM041800 28008KT P6SM BKN025
     FM042000 29007KT P6SM SCT035
     FM050000 30005KT P6SM SKC
     FM051000 22004KT P6SM SKC=



000
FTUS41 KILN 040541
TAFLUK
TAF
KLUK 040541Z 0406/0506 27013G20KT P6SM OVC040
     FM040800 27010KT P6SM OVC028
     FM041800 28007KT P6SM BKN028
     FM042000 29006KT P6SM SCT040
     FM050000 30004KT P6SM SKC=



000
FTUS41 KILN 040541
TAFLCK
TAF
KLCK 040541Z 0406/0506 28013G23KT P6SM SCT025 OVC035
     FM040700 27012KT P6SM OVC015
     FM041600 27009KT P6SM BKN025
     FM042000 27011KT P6SM BKN035
     FM050300 27006KT P6SM SKC=



000
FTUS41 KILN 040541
TAFILN
TAF
KILN 040541Z 0406/0506 27013G22KT P6SM SCT025 OVC035
     FM040800 26011KT P6SM OVC023
     FM041500 27010KT P6SM BKN028
     FM042200 28007KT P6SM SCT028
     FM050100 28004KT P6SM SKC=



000
FTUS41 KILN 040541
TAFDAY
TAF
KDAY 040541Z 0406/0506 26016G25KT P6SM OVC015
     FM040900 27013KT P6SM OVC015
     FM041500 27010KT P6SM BKN025
     FM042200 28007KT P6SM SCT025
     FM050200 26006KT P6SM SKC=



000
FTUS41 KILN 040541
TAFDAY
TAF
KDAY 040541Z 0406/0506 26016G25KT P6SM OVC015
     FM040900 27013KT P6SM OVC015
     FM041500 27010KT P6SM BKN025
     FM042200 28007KT P6SM SCT025
     FM050200 26006KT P6SM SKC=



000
FTUS41 KILN 040541
TAFCMH
TAF
KCMH 040541Z 0406/0506 28013G23KT P6SM SCT025 OVC035
     FM040700 27012KT P6SM OVC015
     FM041600 27009KT P6SM BKN025
     FM042000 27011KT P6SM BKN035
     FM050300 27006KT P6SM SKC=



000
FTUS41 KILN 040541
TAFLCK
TAF
KLCK 040541Z 0406/0506 28013G23KT P6SM SCT025 OVC035
     FM040700 27012KT P6SM OVC015
     FM041600 27009KT P6SM BKN025
     FM042000 27011KT P6SM BKN035
     FM050300 27006KT P6SM SKC=



000
FTUS41 KILN 040541
TAFCVG
TAF
KCVG 040541Z 0406/0512 27012KT P6SM SCT025 OVC035
     FM040700 27010KT P6SM OVC025
     FM041800 28008KT P6SM BKN025
     FM042000 29007KT P6SM SCT035
     FM050000 30005KT P6SM SKC
     FM051000 22004KT P6SM SKC=



000
FTUS41 KILN 040541
TAFILN
TAF
KILN 040541Z 0406/0506 27013G22KT P6SM SCT025 OVC035
     FM040800 26011KT P6SM OVC023
     FM041500 27010KT P6SM BKN028
     FM042200 28007KT P6SM SCT028
     FM050100 28004KT P6SM SKC=



000
FTUS41 KILN 040541
TAFLUK
TAF
KLUK 040541Z 0406/0506 27013G20KT P6SM OVC040
     FM040800 27010KT P6SM OVC028
     FM041800 28007KT P6SM BKN028
     FM042000 29006KT P6SM SCT040
     FM050000 30004KT P6SM SKC=



000
FTUS41 KILN 040359 AAB
TAFILN
TAF AMD
KILN 040359Z 0404/0424 27013KT P6SM OVC035
     FM040500 26011KT P6SM OVC025
     FM041500 27010KT P6SM BKN028
     FM042200 28007KT P6SM FEW030=



000
FTUS41 KILN 040307 AAA
TAFCVG
TAF AMD
KCVG 040307Z 0403/0506 27012KT P6SM OVC035
     FM040500 27010KT P6SM OVC025
     FM041800 28008KT P6SM BKN025
     FM042000 29007KT P6SM SCT030
     FM050000 31003KT P6SM SKC=



000
FTUS41 KILN 040144 AAA
TAFLCK
TAF AMD
KLCK 040144Z 0402/0424 28010G18KT P6SM SKC
     FM040300 28013KT P6SM OVC025
      TEMPO 0403/0405 SCT025 OVC035
     FM040700 27012KT P6SM OVC015
     FM041600 27009KT P6SM BKN025
     FM042000 27011KT P6SM BKN050=



000
FTUS41 KILN 040143 AAA
TAFCMH
TAF AMD
KCMH 040143Z 0402/0424 28016G25KT P6SM SKC
     FM040330 28013G23KT P6SM OVC025
      TEMPO 0404/0405 SCT025 OVC035
     FM040700 27012KT P6SM OVC015
     FM041600 27009KT P6SM BKN025
     FM042000 27011KT P6SM BKN050=



000
FTUS41 KILN 040143 AAA
TAFCMH
TAF AMD
KCMH 040143Z 0402/0424 28016G25KT P6SM SKC
     FM040330 28013G23KT P6SM OVC025
      TEMPO 0404/0405 SCT025 OVC035
     FM040700 27012KT P6SM OVC015
     FM041600 27009KT P6SM BKN025
     FM042000 27011KT P6SM BKN050=



000
FTUS41 KILN 040130 AAA
TAFLUK
TAF AMD
KLUK 040130Z 0402/0424 27013KT P6SM OVC030
      TEMPO 0402/0404 26014G20KT OVC045
     FM041800 28007KT P6SM BKN025
     FM042100 29006KT P6SM SCT030=



000
FTUS41 KILN 032333
TAFCMH
TAF
KCMH 032333Z 0400/0424 27016G25KT P6SM SKC
     FM040130 27013G23KT P6SM OVC025
      TEMPO 0402/0403 SCT025 OVC035
     FM040400 27012KT P6SM OVC015
     FM041600 27009KT P6SM BKN025
     FM042000 27011KT P6SM BKN050=



000
FTUS41 KILN 032333
TAFLCK
TAF
KLCK 032333Z 0400/0424 27016G25KT P6SM SKC
     FM040130 27013G23KT P6SM OVC025
      TEMPO 0402/0403 SCT025 OVC035
     FM040400 27012KT P6SM OVC015
     FM041600 27009KT P6SM BKN025
     FM042000 27011KT P6SM BKN050=



000
FTUS41 KILN 032333
TAFDAY
TAF
KDAY 032333Z 0400/0424 26016G27KT P6SM OVC028
      TEMPO 0400/0402 OVC040
     FM040300 26013KT P6SM OVC015
     FM041500 27010KT P6SM BKN025
     FM042200 28007KT P6SM FEW025=



000
FTUS41 KILN 032333
TAFCVG
TAF
KCVG 032333Z 0400/0506 26015G25KT P6SM OVC050
     FM040100 26012G20KT P6SM OVC030
     FM040500 27010KT P6SM OVC020
     FM041800 28008KT P6SM BKN025
     FM042000 29007KT P6SM SCT030
     FM050000 31003KT P6SM SKC=



000
FTUS41 KILN 032333
TAFLUK
TAF
KLUK 032333Z 0400/0424 27014KT P6SM OVC050
     FM040100 27012KT P6SM OVC030
     FM041800 28007KT P6SM BKN025
     FM042100 29006KT P6SM SCT030=



000
FTUS41 KILN 032333
TAFILN
TAF
KILN 032333Z 0400/0424 27013G22KT P6SM OVC040
      TEMPO 0400/0401 SKC
     FM040300 26011KT P6SM OVC025
     FM041500 27010KT P6SM BKN028
     FM042200 28007KT P6SM FEW030=



000
FTUS41 KILN 032333
TAFCVG
TAF
KCVG 032333Z 0400/0506 26015G25KT P6SM OVC050
     FM040100 26012G20KT P6SM OVC030
     FM040500 27010KT P6SM OVC020
     FM041800 28008KT P6SM BKN025
     FM042000 29007KT P6SM SCT030
     FM050000 31003KT P6SM SKC=



000
FTUS41 KILN 032333
TAFDAY
TAF
KDAY 032333Z 0400/0424 26016G27KT P6SM OVC028
      TEMPO 0400/0402 OVC040
     FM040300 26013KT P6SM OVC015
     FM041500 27010KT P6SM BKN025
     FM042200 28007KT P6SM FEW025=



000
FTUS41 KILN 032333
TAFILN
TAF
KILN 032333Z 0400/0424 27013G22KT P6SM OVC040
      TEMPO 0400/0401 SKC
     FM040300 26011KT P6SM OVC025
     FM041500 27010KT P6SM BKN028
     FM042200 28007KT P6SM FEW030=



000
FTUS41 KILN 032333
TAFLUK
TAF
KLUK 032333Z 0400/0424 27014KT P6SM OVC050
     FM040100 27012KT P6SM OVC030
     FM041800 28007KT P6SM BKN025
     FM042100 29006KT P6SM SCT030=



000
FTUS41 KILN 032333
TAFLCK
TAF
KLCK 032333Z 0400/0424 27016G25KT P6SM SKC
     FM040130 27013G23KT P6SM OVC025
      TEMPO 0402/0403 SCT025 OVC035
     FM040400 27012KT P6SM OVC015
     FM041600 27009KT P6SM BKN025
     FM042000 27011KT P6SM BKN050=



000
FTUS41 KILN 032333
TAFCMH
TAF
KCMH 032333Z 0400/0424 27016G25KT P6SM SKC
     FM040130 27013G23KT P6SM OVC025
      TEMPO 0402/0403 SCT025 OVC035
     FM040400 27012KT P6SM OVC015
     FM041600 27009KT P6SM BKN025
     FM042000 27011KT P6SM BKN050=



    US Dept of Commerce
    National Oceanic and Atmospheric Administration
    National Weather Service
    1325 East West Highway
    Silver Spring, MD 20910
    Page Author: NWS Internet Services Team
Disclaimer
Information Quality
Credits
Glossary
Privacy Policy
Freedom of Information Act (FOIA)
About Us
Career Opportunities